Time;durP1;ratioP1;P1;durP2;ratioP2;P2;SDS_P1;SDS_P2;PMS_P1;PMS_P2;Temp;Humidity;BMP_temperature;BMP_pressure;BME280_temperature;BME280_humidity;BME280_pressure;Samples;Min_cycle;Max_cycle;Signal;HPM_P1;HPM_P2
2023/03/30 00:00:18;;;;;;;30.13;15.77;;;205.30;2252.80;;;;;;5049598;28;20033;-81
2023/03/30 00:02:49;;;;;;;27.17;13.50;;;205.10;2252.80;;;;;;5020623;28;20029;-83
2023/03/30 00:05:16;;;;;;;26.08;12.20;;;205.20;2252.80;;;;;;5030230;28;20021;-79
2023/03/30 00:07:46;;;;;;;22.80;12.95;;;205.30;2252.80;;;;;;5017327;28;20025;-81
2023/03/30 00:10:17;;;;;;;23.30;13.68;;;205.50;2252.80;;;;;;5032347;28;20112;-83
2023/03/30 00:12:46;;;;;;;27.45;13.50;;;205.60;2252.80;;;;;;5020939;28;20419;-81
2023/03/30 00:15:14;;;;;;;22.52;13.10;;;205.60;2252.80;;;;;;5029953;28;20052;-81
2023/03/30 00:17:40;;;;;;;26.70;12.85;;;205.70;2252.80;;;;;;5027773;28;20083;-82
2023/03/30 00:20:13;;;;;;;26.35;15.68;;;205.70;2252.80;;;;;;5037029;28;20033;-84
2023/03/30 00:22:43;;;;;;;29.90;17.63;;;205.70;2252.80;;;;;;5037168;28;20031;-86
2023/03/30 00:25:12;;;;;;;40.17;21.13;;;205.70;2252.80;;;;;;5037575;28;20033;-86
2023/03/30 00:27:39;;;;;;;38.75;22.10;;;205.70;2252.80;;;;;;5037195;28;20196;-86
2023/03/30 00:30:07;;;;;;;37.70;21.60;;;205.70;2252.80;;;;;;5037047;28;20021;-86
2023/03/30 00:32:33;;;;;;;38.95;21.67;;;205.70;2252.80;;;;;;5037253;28;20396;-86
2023/03/30 00:35:00;;;;;;;40.67;23.00;;;205.70;2252.80;;;;;;5037137;28;20036;-84
2023/03/30 00:37:26;;;;;;;36.25;21.70;;;205.70;2252.80;;;;;;5036733;28;20029;-85
2023/03/30 00:39:52;;;;;;;40.42;24.23;;;205.70;2252.80;;;;;;5054996;28;20021;-84
2023/03/30 00:42:20;;;;;;;53.72;27.77;;;205.70;2252.80;;;;;;5036843;28;20032;-81
2023/03/30 00:45:06;;;;;;;45.17;28.00;;;205.70;2252.80;;;;;;5036704;28;20116;-83
2023/03/30 00:47:37;;;;;;;40.35;22.08;;;205.70;2252.80;;;;;;5036902;28;20025;-82
2023/03/30 00:50:04;;;;;;;37.35;22.67;;;205.70;2252.80;;;;;;5053470;28;20380;-86
2023/03/30 00:52:32;;;;;;;38.50;22.60;;;205.70;2252.80;;;;;;5036419;28;20031;-81
2023/03/30 00:54:58;;;;;;;28.70;17.15;;;205.70;2252.80;;;;;;5037788;28;20469;-82
2023/03/30 00:57:25;;;;;;;52.97;29.23;;;205.60;2252.80;;;;;;5053506;28;20380;-81
2023/03/30 00:59:52;;;;;;;55.33;30.17;;;205.40;2252.80;;;;;;5052317;28;20040;-84
2023/03/30 01:02:22;;;;;;;61.10;31.67;;;205.50;2252.80;;;;;;5035886;28;20025;-87
2023/03/30 01:04:50;;;;;;;51.17;30.48;;;205.60;2252.80;;;;;;5032450;28;20480;-85
2023/03/30 01:07:16;;;;;;;50.65;28.33;;;230.40;2252.80;;;;;;5033263;28;20025;-85
2023/03/30 01:09:43;;;;;;;46.70;26.35;;;205.60;2252.80;;;;;;5033303;28;20037;-81
2023/03/30 01:12:09;;;;;;;49.83;27.83;;;205.40;2252.80;;;;;;5033958;28;20053;-84
2023/03/30 01:14:36;;;;;;;50.53;27.25;;;205.40;2252.80;;;;;;5033386;28;20034;-85
2023/03/30 01:17:35;;;;;;;29.25;16.13;;;205.40;2252.80;;;;;;5033076;28;20079;-83
2023/03/30 01:20:18;;;;;;;25.00;14.55;;;205.20;2252.80;;;;;;5005334;28;20044;-85
2023/03/30 01:22:53;;;;;;;31.40;17.48;;;205.10;2252.80;;;;;;5033093;28;20040;-85
2023/03/30 01:25:39;;;;;;;25.50;13.02;;;205.00;2252.80;;;;;;5032747;28;20455;-82
2023/03/30 01:28:14;;;;;;;34.45;18.88;;;204.90;2252.80;;;;;;5034413;28;20044;-85
2023/03/30 01:30:49;;;;;;;24.73;14.07;;;205.10;2252.80;;;;;;5035559;28;20420;-86
2023/03/30 01:33:44;;;;;;;18.75;11.57;;;205.10;2252.80;;;;;;5034893;28;20132;-87
2023/03/30 01:36:30;;;;;;;21.08;11.77;;;205.20;2252.80;;;;;;5035188;28;20035;-86
2023/03/30 01:39:12;;;;;;;24.35;13.30;;;205.20;2252.80;;;;;;5059504;28;20009;-83
2023/03/30 01:41:41;;;;;;;23.75;14.38;;;205.40;2252.80;;;;;;5060516;28;20048;-86
2023/03/30 01:44:29;;;;;;;21.73;13.43;;;205.30;2252.80;;;;;;5060909;28;20012;-82
2023/03/30 01:47:17;;;;;;;21.67;11.70;;;205.10;2252.80;;;;;;5060327;28;20021;-81
2023/03/30 01:49:55;;;;;;;17.52;10.43;;;205.20;2252.80;;;;;;5044021;28;20115;-82
2023/03/30 01:52:39;;;;;;;18.88;11.75;;;205.30;2252.80;;;;;;5035890;28;20057;-85
2023/03/30 01:55:34;;;;;;;25.95;13.70;;;205.20;2252.80;;;;;;5035951;28;20060;-84
2023/03/30 01:58:11;;;;;;;23.70;14.52;;;205.40;2252.80;;;;;;5025393;28;20044;-85
2023/03/30 02:00:40;;;;;;;25.40;13.40;;;205.40;2252.80;;;;;;5035711;28;20029;-84
2023/03/30 02:03:17;;;;;;;21.20;12.85;;;205.30;2252.80;;;;;;5036386;28;20040;-85
2023/03/30 02:05:48;;;;;;;30.48;18.60;;;205.30;2252.80;;;;;;5037201;28;20029;-84
2023/03/30 02:08:17;;;;;;;41.95;21.83;;;205.20;2252.80;;;;;;5035741;28;20032;-85
2023/03/30 02:10:44;;;;;;;37.65;21.88;;;205.40;2252.80;;;;;;5035318;28;20110;-84
2023/03/30 02:13:12;;;;;;;33.22;18.15;;;205.30;2252.80;;;;;;5035656;28;20115;-84
2023/03/30 02:15:44;;;;;;;28.80;16.67;;;205.40;2252.80;;;;;;5035012;28;20029;-83
2023/03/30 02:18:10;;;;;;;33.13;17.25;;;205.30;2252.80;;;;;;5035378;28;20027;-84
2023/03/30 02:20:37;;;;;;;29.45;17.02;;;205.40;2252.80;;;;;;5035215;28;20384;-84
2023/03/30 02:23:04;;;;;;;29.40;15.63;;;205.40;2252.80;;;;;;5052928;28;20028;-84
2023/03/30 02:25:31;;;;;;;24.98;15.43;;;205.40;2252.80;;;;;;5053081;28;20104;-85
2023/03/30 02:27:57;;;;;;;31.27;17.98;;;205.40;2252.80;;;;;;5035262;28;20490;-85
2023/03/30 02:30:23;;;;;;;28.45;16.92;;;205.50;2252.80;;;;;;5031020;28;20104;-84
2023/03/30 02:32:53;;;;;;;28.30;17.95;;;205.50;2252.80;;;;;;5031660;28;20054;-81
2023/03/30 02:35:34;;;;;;;26.77;13.98;;;205.50;2252.80;;;;;;5031643;28;20034;-86
2023/03/30 02:38:19;;;;;;;28.25;14.43;;;205.50;2252.80;;;;;;5031912;28;20056;-84
2023/03/30 02:41:03;;;;;;;19.70;11.43;;;205.40;2252.80;;;;;;5032100;28;20567;-85
2023/03/30 02:44:19;;;;;;;19.48;11.45;;;205.50;2252.80;;;;;;5032797;28;20033;-81
2023/03/30 02:47:15;;;;;;;30.77;18.23;;;205.50;2252.80;;;;;;5030049;28;20036;-85
2023/03/30 02:49:59;;;;;;;34.40;19.40;;;205.50;2252.80;;;;;;5034556;28;20416;-85
2023/03/30 02:52:35;;;;;;;29.20;18.48;;;205.30;2252.80;;;;;;5018609;28;20496;-85
2023/03/30 02:55:13;;;;;;;27.92;18.38;;;205.20;2252.80;;;;;;5034789;28;20422;-81
2023/03/30 02:58:01;;;;;;;29.27;17.85;;;205.30;2252.80;;;;;;5021413;28;20032;-85
2023/03/30 03:00:42;;;;;;;27.73;14.32;;;205.30;2252.80;;;;;;5038677;28;20031;-85
2023/03/30 03:03:17;;;;;;;26.67;15.00;;;205.10;2252.80;;;;;;5037953;28;20029;-84
2023/03/30 03:05:43;;;;;;;26.95;16.10;;;204.90;2252.80;;;;;;5056528;28;20025;-85
2023/03/30 03:08:12;;;;;;;70.20;40.03;;;205.00;2252.80;;;;;;5056457;28;20036;-84
2023/03/30 03:10:38;;;;;;;49.60;29.38;;;205.00;2252.80;;;;;;5038033;28;20037;-86
2023/03/30 03:13:04;;;;;;;46.15;26.58;;;205.10;2252.80;;;;;;5038505;28;20029;-81
2023/03/30 03:15:30;;;;;;;36.15;23.33;;;205.20;2252.80;;;;;;5038503;28;20131;-81
2023/03/30 03:17:57;;;;;;;39.55;23.73;;;205.20;2252.80;;;;;;5055813;28;20028;-86
2023/03/30 03:20:25;;;;;;;30.42;13.75;;;205.30;2252.80;;;;;;5038092;28;20037;-83
2023/03/30 03:22:51;;;;;;;24.63;13.80;;;205.10;2252.80;;;;;;5038197;28;20372;-85
2023/03/30 03:25:17;;;;;;;24.02;17.45;;;204.90;2252.80;;;;;;5037962;28;20108;-83
2023/03/30 03:27:43;;;;;;;57.70;38.08;;;180.10;2252.80;;;;;;5038203;28;20029;-85
2023/03/30 03:30:09;;;;;;;79.68;47.95;;;180.10;2252.80;;;;;;5038318;28;20116;-84
2023/03/30 03:32:35;;;;;;;75.25;43.72;;;204.90;2252.80;;;;;;5041752;28;20452;-84
2023/03/30 03:35:00;;;;;;;69.93;39.13;;;204.90;2252.80;;;;;;5039731;28;20064;-86
2023/03/30 03:37:26;;;;;;;59.58;37.03;;;205.00;2252.80;;;;;;5037785;28;20027;-85
2023/03/30 03:39:52;;;;;;;67.65;40.75;;;205.20;2252.80;;;;;;5037453;28;20442;-84
2023/03/30 03:42:17;;;;;;;59.15;34.15;;;205.20;2252.80;;;;;;5038084;28;20051;-85
2023/03/30 03:44:43;;;;;;;43.63;28.00;;;205.20;2252.80;;;;;;5037613;28;20029;-85
2023/03/30 03:47:12;;;;;;;45.42;25.15;;;205.10;2252.80;;;;;;5037421;28;20124;-83
2023/03/30 03:49:38;;;;;;;58.28;30.83;;;204.90;2252.80;;;;;;5037667;28;20025;-85
2023/03/30 03:52:03;;;;;;;123.40;60.83;;;204.90;2252.80;;;;;;5037656;28;20071;-83
2023/03/30 03:54:29;;;;;;;112.22;55.42;;;205.10;2252.80;;;;;;5036906;28;20112;-83
2023/03/30 03:56:55;;;;;;;69.68;38.17;;;205.00;2252.80;;;;;;5037575;28;20469;-85
2023/03/30 03:59:21;;;;;;;40.95;22.30;;;204.80;2252.80;;;;;;5037339;28;20032;-88
2023/03/30 04:01:47;;;;;;;23.67;15.10;;;179.90;2252.80;;;;;;5037424;28;20032;-86
2023/03/30 04:04:13;;;;;;;30.10;17.85;;;179.90;2252.80;;;;;;5037508;28;20021;-87
2023/03/30 04:06:38;;;;;;;36.05;19.23;;;179.60;2252.80;;;;;;5036825;28;20105;-84
2023/03/30 04:09:04;;;;;;;45.53;22.17;;;;;;;;;;5037536;28;20036;-84
2023/03/30 04:11:31;;;;;;;43.72;23.27;;;180.00;2252.80;;;;;;5037275;28;20492;-85
2023/03/30 04:13:56;;;;;;;31.17;20.65;;;179.90;2252.80;;;;;;5036883;28;20021;-84
2023/03/30 04:16:22;;;;;;;25.55;16.90;;;180.10;2252.80;;;;;;5037483;28;20487;-86
2023/03/30 04:18:48;;;;;;;29.65;16.65;;;204.80;2252.80;;;;;;5037305;28;20091;-86
2023/03/30 04:21:16;;;;;;;29.90;17.42;;;204.90;2252.80;;;;;;5037069;28;20386;-86
2023/03/30 04:23:44;;;;;;;36.38;21.40;;;204.90;2252.80;;;;;;5037352;28;20021;-86
2023/03/30 04:26:12;;;;;;;30.65;17.95;;;204.80;2252.80;;;;;;5037249;28;20025;-87
2023/03/30 04:28:39;;;;;;;31.30;16.83;;;180.10;2252.80;;;;;;5035323;28;20041;-85
2023/03/30 04:31:11;;;;;;;38.45;21.63;;;180.00;2252.80;;;;;;5036778;28;20460;-87
2023/03/30 04:33:52;;;;;;;49.38;29.67;;;180.10;2252.80;;;;;;5036360;28;20354;-82
2023/03/30 04:36:19;;;;;;;33.35;19.50;;;180.10;2252.80;;;;;;5036743;28;20487;-83
2023/03/30 04:38:57;;;;;;;33.20;19.33;;;180.00;2252.80;;;;;;5036865;28;20029;-85
2023/03/30 04:41:34;;;;;;;41.58;20.02;;;180.00;2252.80;;;;;;5054656;28;20538;-90
2023/03/30 04:44:05;;;;;;;39.65;21.92;;;179.90;2252.80;;;;;;5036907;28;20111;-86
2023/03/30 04:46:31;;;;;;;38.83;21.30;;;179.80;2252.80;;;;;;5055023;28;20021;-88
2023/03/30 04:48:57;;;;;;;53.30;29.42;;;179.80;2252.80;;;;;;5036337;28;20124;-85
2023/03/30 04:51:23;;;;;;;60.28;32.00;;;179.80;2252.80;;;;;;5035047;28;20036;-87
2023/03/30 04:53:49;;;;;;;51.17;29.52;;;179.80;2252.80;;;;;;5036250;28;20024;-85
2023/03/30 04:56:15;;;;;;;49.70;29.58;;;179.90;2252.80;;;;;;5035872;28;20068;-85
2023/03/30 04:58:41;;;;;;;59.00;34.15;;;180.00;2252.80;;;;;;5036603;28;20060;-83
2023/03/30 05:01:07;;;;;;;94.55;52.95;;;180.00;2252.80;;;;;;5036189;28;20067;-85
2023/03/30 05:03:34;;;;;;;80.55;44.53;;;180.00;2252.80;;;;;;5036233;28;20021;-85
2023/03/30 05:06:00;;;;;;;140.32;79.00;;;179.90;2252.80;;;;;;5035829;28;20048;-86
2023/03/30 05:08:26;;;;;;;135.13;72.60;;;179.80;2252.80;;;;;;5036340;28;20033;-87
2023/03/30 05:10:52;;;;;;;106.18;59.35;;;179.80;2252.80;;;;;;5036271;28;20025;-85
2023/03/30 05:13:18;;;;;;;105.38;59.08;;;179.90;2252.80;;;;;;5036366;28;20049;-85
2023/03/30 05:15:44;;;;;;;139.57;77.20;;;180.00;2252.80;;;;;;5036362;28;20611;-88
2023/03/30 05:18:10;;;;;;;132.18;76.90;;;180.00;2252.80;;;;;;5035750;28;20094;-87
2023/03/30 05:20:35;;;;;;;123.50;70.50;;;180.10;2252.80;;;;;;5036125;28;20540;-86
2023/03/30 05:23:01;;;;;;;85.55;46.95;;;204.80;2252.80;;;;;;5054173;28;20105;-83
2023/03/30 05:25:27;;;;;;;77.30;42.20;;;179.90;2252.80;;;;;;5035945;28;20480;-87
2023/03/30 05:27:52;;;;;;;83.20;41.50;;;179.60;2252.80;;;;;;5036134;28;20032;-83
2023/03/30 05:30:18;;;;;;;115.18;53.05;;;179.50;2252.80;;;;;;5035815;28;20055;-86
2023/03/30 05:32:44;;;;;;;112.50;55.60;;;179.70;2252.80;;;;;;5053617;28;20611;-85
2023/03/30 05:35:10;;;;;;;97.47;50.10;;;179.80;2252.80;;;;;;5053893;28;20021;-83
2023/03/30 05:37:37;;;;;;;69.05;41.58;;;179.80;2252.80;;;;;;5053525;28;20028;-85
2023/03/30 05:40:08;;;;;;;77.70;42.97;;;180.00;2252.80;;;;;;5035758;28;20033;-82
2023/03/30 05:42:35;;;;;;;79.22;49.55;;;180.00;2252.80;;;;;;5053846;28;20069;-85
2023/03/30 05:45:01;;;;;;;77.90;46.80;;;179.70;2252.80;;;;;;5035819;28;20021;-85
2023/03/30 05:47:27;;;;;;;79.28;44.20;;;179.80;2252.80;;;;;;5053989;28;20550;-84
2023/03/30 05:49:53;;;;;;;70.90;40.17;;;205.00;2252.80;;;;;;5036190;28;20025;-85
2023/03/30 05:52:20;;;;;;;68.55;38.58;;;179.80;2252.80;;;;;;5035665;28;20028;-85
2023/03/30 05:54:46;;;;;;;73.68;40.00;;;180.00;2252.80;;;;;;5035844;28;20095;-85
2023/03/30 05:57:12;;;;;;;52.72;32.08;;;179.80;2252.80;;;;;;5035740;28;20461;-86
2023/03/30 05:59:38;;;;;;;57.13;32.97;;;179.90;2252.80;;;;;;5035436;28;20407;-85
2023/03/30 06:02:05;;;;;;;68.25;34.97;;;179.90;2252.80;;;;;;5035915;28;20041;-86
2023/03/30 06:04:32;;;;;;;42.65;27.90;;;180.10;2252.80;;;;;;5035849;28;20021;-88
2023/03/30 06:06:58;;;;;;;50.33;28.27;;;179.90;2252.80;;;;;;5035397;28;20192;-87
2023/03/30 06:09:25;;;;;;;49.97;31.25;;;179.90;2252.80;;;;;;5035953;28;20120;-88
2023/03/30 06:11:51;;;;;;;46.00;30.67;;;180.10;2252.80;;;;;;5038839;28;20036;-89
2023/03/30 06:14:17;;;;;;;47.10;28.08;;;180.10;2252.80;;;;;;5037652;28;20028;-87
2023/03/30 06:16:43;;;;;;;44.22;26.52;;;180.10;2252.80;;;;;;5035888;28;20025;-86
2023/03/30 06:19:09;;;;;;;45.78;25.90;;;204.80;2252.80;;;;;;5039806;28;20032;-88
2023/03/30 06:21:34;;;;;;;51.35;30.73;;;180.10;2252.80;;;;;;5057331;28;20456;-86
2023/03/30 06:24:00;;;;;;;45.60;26.13;;;180.10;2252.80;;;;;;5039659;28;20427;-86
2023/03/30 06:26:27;;;;;;;37.00;22.30;;;180.10;2252.80;;;;;;5039318;28;20074;-86
2023/03/30 06:28:52;;;;;;;36.30;22.50;;;180.10;2252.80;;;;;;5039738;28;20033;-86
2023/03/30 06:31:18;;;;;;;39.20;21.80;;;180.10;2252.80;;;;;;5039459;28;20056;-86
2023/03/30 06:33:44;;;;;;;34.03;21.00;;;180.10;2252.80;;;;;;5039217;28;20029;-86
2023/03/30 06:36:11;;;;;;;47.88;23.52;;;180.10;2252.80;;;;;;5039206;28;20048;-89
2023/03/30 06:38:37;;;;;;;32.30;17.67;;;180.10;2252.80;;;;;;5039272;28;20079;-87
2023/03/30 06:41:06;;;;;;;24.50;16.52;;;180.10;2252.80;;;;;;5039141;28;20029;-88
2023/03/30 06:43:31;;;;;;;29.10;17.27;;;180.10;2252.80;;;;;;5039309;28;20024;-88
2023/03/30 06:45:57;;;;;;;31.20;16.90;;;205.00;2252.80;;;;;;5039591;28;20112;-88
2023/03/30 06:48:23;;;;;;;27.55;15.93;;;204.90;2252.80;;;;;;5038985;28;20029;-87
2023/03/30 06:50:51;;;;;;;25.05;16.13;;;205.10;2252.80;;;;;;5039450;28;20048;-87
2023/03/30 06:53:16;;;;;;;30.75;17.60;;;205.20;2252.80;;;;;;5039204;28;20108;-87
2023/03/30 06:55:43;;;;;;;34.75;22.80;;;205.30;2252.80;;;;;;5039059;28;20060;-84
2023/03/30 06:58:09;;;;;;;132.75;70.45;;;205.40;2252.80;;;;;;5038933;28;20036;-86
2023/03/30 07:00:35;;;;;;;38.85;21.92;;;205.50;2252.80;;;;;;5038850;28;20052;-83
2023/03/30 07:03:02;;;;;;;37.75;22.05;;;205.40;2252.80;;;;;;5038557;28;20032;-85
2023/03/30 07:05:28;;;;;;;33.80;23.55;;;205.50;2252.80;;;;;;5056695;28;20140;-87
2023/03/30 07:07:55;;;;;;;35.97;22.83;;;205.70;2252.80;;;;;;5038864;28;20115;-86
2023/03/30 07:10:21;;;;;;;28.65;17.45;;;230.40;2252.80;;;;;;5038664;28;20427;-85
2023/03/30 07:12:47;;;;;;;23.73;16.02;;;230.50;2252.80;;;;;;5038873;28;20111;-86
2023/03/30 07:15:13;;;;;;;26.63;15.10;;;230.60;2252.80;;;;;;5038505;28;20483;-85
2023/03/30 07:17:39;;;;;;;27.27;19.17;;;230.70;2252.80;;;;;;5038488;28;20032;-84
2023/03/30 07:20:07;;;;;;;36.42;24.80;;;230.90;2252.80;;;;;;5038396;28;20453;-85
2023/03/30 07:22:34;;;;;;;28.92;17.83;;;231.00;2252.80;;;;;;5038425;28;20385;-85
2023/03/30 07:25:00;;;;;;;30.92;19.92;;;231.10;2252.80;;;;;;5038353;28;20028;-85
2023/03/30 07:27:26;;;;;;;21.35;14.65;;;231.20;2252.80;;;;;;5033785;28;20081;-85
2023/03/30 07:29:53;;;;;;;24.02;17.52;;;231.30;2252.80;;;;;;5034613;28;20519;-85
2023/03/30 07:32:19;;;;;;;24.13;14.77;;;256.00;2227.20;;;;;;5017137;28;20468;-85
2023/03/30 07:34:46;;;;;;;25.63;16.40;;;256.10;2227.20;;;;;;5018418;28;20057;-88
2023/03/30 07:37:13;;;;;;;22.83;15.40;;;256.20;2201.60;;;;;;5017873;28;20473;-85
2023/03/30 07:39:40;;;;;;;25.83;16.70;;;256.30;2227.20;;;;;;5018423;28;20029;-84
2023/03/30 07:42:06;;;;;;;20.83;15.40;;;256.30;2252.80;;;;;;5018362;28;20057;-84
2023/03/30 07:44:32;;;;;;;28.73;16.90;;;256.40;2227.20;;;;;;5017991;28;20025;-85
2023/03/30 07:46:57;;;;;;;28.73;17.60;;;256.50;2227.20;;;;;;5035870;28;20075;-85
2023/03/30 07:49:24;;;;;;;26.75;17.75;;;256.60;2252.80;;;;;;5035517;28;20465;-84
2023/03/30 07:51:52;;;;;;;30.85;18.85;;;256.80;2201.60;;;;;;5017873;28;20030;-86
2023/03/30 07:54:18;;;;;;;32.38;18.75;;;256.80;2201.60;;;;;;5018121;28;20481;-86
2023/03/30 07:56:43;;;;;;;26.05;17.17;;;256.80;2201.60;;;;;;5018053;28;20026;-84
2023/03/30 07:59:11;;;;;;;30.48;18.65;;;256.90;2176.00;;;;;;5031548;28;20085;-82
2023/03/30 08:01:37;;;;;;;26.38;17.70;;;256.90;2150.40;;;;;;5037388;28;20029;-83
2023/03/30 08:04:03;;;;;;;22.60;15.13;;;281.70;2176.00;;;;;;5036947;28;20032;-82
2023/03/30 08:06:29;;;;;;;25.45;16.95;;;281.60;2176.00;;;;;;5037412;28;20021;-88
2023/03/30 08:08:55;;;;;;;19.88;13.15;;;281.60;2124.80;;;;;;5055553;28;20039;-83
2023/03/30 08:11:21;;;;;;;20.30;12.32;;;256.90;2073.60;;;;;;5037731;28;20033;-84
2023/03/30 08:13:47;;;;;;;24.15;16.38;;;256.90;2073.60;;;;;;5055251;28;20028;-82
2023/03/30 08:16:13;;;;;;;26.67;15.65;;;281.70;2099.20;;;;;;5037501;28;20102;-84
2023/03/30 08:18:42;;;;;;;46.03;31.17;;;281.80;2073.60;;;;;;5054649;28;20465;-86
2023/03/30 08:21:09;;;;;;;22.20;14.93;;;282.00;2073.60;;;;;;5037169;28;20472;-86
2023/03/30 08:23:35;;;;;;;21.67;12.82;;;282.10;2048.00;;;;;;5055178;28;20025;-86
2023/03/30 08:26:01;;;;;;;29.38;19.25;;;282.30;2048.00;;;;;;5036883;28;20480;-84
2023/03/30 08:28:27;;;;;;;39.95;29.98;;;282.50;2048.00;;;;;;5037283;28;20523;-84
2023/03/30 08:30:53;;;;;;;16.70;12.88;;;307.20;2048.00;;;;;;5055221;28;20052;-85
2023/03/30 08:33:21;;;;;;;19.10;11.95;;;307.30;2048.00;;;;;;5054702;28;20048;-86
2023/03/30 08:35:48;;;;;;;21.05;13.80;;;307.40;2073.60;;;;;;5054776;28;20124;-84
2023/03/30 08:38:16;;;;;;;17.63;10.30;;;307.60;2073.60;;;;;;5036808;28;20078;-83
2023/03/30 08:40:42;;;;;;;17.85;10.63;;;;;;;;;;5035543;28;20496;-85
2023/03/30 08:43:27;;;;;;;15.35;9.93;;;307.60;2022.40;;;;;;5036655;28;20120;-83
2023/03/30 08:45:53;;;;;;;14.43;8.75;;;307.70;2022.40;;;;;;5037003;28;20043;-81
2023/03/30 08:48:21;;;;;;;16.35;10.27;;;307.90;2048.00;;;;;;5036812;28;20536;-82
2023/03/30 08:50:57;;;;;;;15.23;9.93;;;308.10;2022.40;;;;;;5036878;28;20068;-83
2023/03/30 08:53:23;;;;;;;15.70;10.40;;;308.10;1996.80;;;;;;5037571;28;20025;-82
2023/03/30 08:56:18;;;;;;;17.55;10.90;;;308.10;1996.80;;;;;;5038168;28;20163;-83
2023/03/30 08:59:24;;;;;;;14.07;9.13;;;332.90;2073.60;;;;;;5036460;28;20127;-84
2023/03/30 09:02:11;;;;;;;17.60;11.30;;;332.90;2176.00;;;;;;5056326;28;20521;-84
2023/03/30 09:05:00;;;;;;;24.25;8.95;;;333.10;2048.00;;;;;;5036671;28;20033;-84
2023/03/30 09:07:39;;;;;;;12.85;8.15;;;333.20;2048.00;;;;;;5054011;28;20464;-83
2023/03/30 09:10:13;;;;;;;11.88;7.53;;;333.30;2022.40;;;;;;5054322;28;20087;-84
2023/03/30 09:12:52;;;;;;;11.25;8.48;;;333.30;2022.40;;;;;;5035635;28;20056;-81
2023/03/30 09:15:39;;;;;;;19.05;12.60;;;333.30;2048.00;;;;;;5035307;28;20021;-83
2023/03/30 09:18:23;;;;;;;26.35;13.85;;;333.40;2048.00;;;;;;5034756;28;20033;-83
2023/03/30 09:20:51;;;;;;;13.98;8.50;;;333.40;2022.40;;;;;;5036380;28;20029;-85
2023/03/30 09:23:17;;;;;;;10.60;6.30;;;333.50;1996.80;;;;;;5036391;28;20028;-85
2023/03/30 09:25:53;;;;;;;13.35;6.18;;;333.40;2022.40;;;;;;5036727;28;20381;-83
2023/03/30 09:28:59;;;;;;;13.77;6.75;;;333.40;1996.80;;;;;;5034801;28;20453;-84
2023/03/30 09:31:36;;;;;;;12.43;7.13;;;333.50;1996.80;;;;;;5047971;28;20385;-83
2023/03/30 09:34:26;;;;;;;13.30;6.80;;;333.60;1996.80;;;;;;5035885;28;20021;-84
2023/03/30 09:37:15;;;;;;;9.27;6.13;;;333.70;1996.80;;;;;;5021512;28;20017;-83
2023/03/30 09:39:40;;;;;;;10.30;6.57;;;358.40;2022.40;;;;;;5035836;28;20086;-84
2023/03/30 09:42:21;;;;;;;12.02;7.82;;;358.50;2022.40;;;;;;5035908;28;20033;-85
2023/03/30 09:44:54;;;;;;;8.40;5.00;;;358.60;1996.80;;;;;;5016804;28;20026;-86
2023/03/30 09:47:23;;;;;;;;;;;358.60;1945.60;;;;;;5026115;28;20415;-84
2023/03/30 09:49:56;;;;;;;11.32;7.43;;;358.70;1971.20;;;;;;5039993;28;19909;-85
2023/03/30 09:52:24;;;;;;;12.23;7.93;;;358.70;1996.80;;;;;;5046969;28;20059;-85
2023/03/30 09:54:50;;;;;;;10.57;6.00;;;358.80;1996.80;;;;;;5060493;28;20025;-85
2023/03/30 09:57:30;;;;;;;10.50;6.30;;;358.80;1971.20;;;;;;5053740;28;20021;-83
2023/03/30 09:59:57;;;;;;;16.20;13.52;;;;;;;;;;5036470;28;20083;-86
2023/03/30 10:02:26;;;;;;;12.68;7.00;;;359.30;2048.00;;;;;;5033198;28;20021;-85
2023/03/30 10:04:52;;;;;;;11.15;6.90;;;359.20;1945.60;;;;;;5032961;28;20040;-84
2023/03/30 10:07:30;;;;;;;12.98;6.82;;;359.30;1920.00;;;;;;5047073;28;20033;-84
2023/03/30 10:09:59;;;;;;;11.00;7.15;;;384.00;1894.40;;;;;;5041731;28;20032;-82
2023/03/30 10:12:26;;;;;;;12.38;8.63;;;384.10;1843.20;;;;;;5034366;28;20468;-85
2023/03/30 10:15:00;;;;;;;12.40;7.32;;;384.50;1868.80;;;;;;5016683;28;20473;-85
2023/03/30 10:17:27;;;;;;;12.60;6.60;;;384.60;1843.20;;;;;;5043736;28;20041;-84
2023/03/30 10:20:13;;;;;;;13.77;6.43;;;384.70;1843.20;;;;;;5036027;28;20029;-84
2023/03/30 10:22:50;;;;;;;10.52;6.07;;;384.90;1843.20;;;;;;5016846;28;20033;-85
2023/03/30 10:25:26;;;;;;;13.88;5.07;;;409.80;1843.20;;;;;;5044676;28;20120;-86
2023/03/30 10:27:56;;;;;;;9.23;6.10;;;410.00;1843.20;;;;;;5036601;28;20036;-86
2023/03/30 10:30:25;;;;;;;8.18;4.55;;;410.20;1817.60;;;;;;5037762;28;20025;-85
2023/03/30 10:32:54;;;;;;;9.80;5.10;;;410.10;1792.00;;;;;;5048191;28;20065;-84
2023/03/30 10:35:24;;;;;;;9.27;4.90;;;410.30;1792.00;;;;;;5015778;28;20377;-85
2023/03/30 10:37:55;;;;;;;10.57;6.88;;;410.50;1792.00;;;;;;5029015;28;20108;-84
2023/03/30 10:40:26;;;;;;;14.82;8.20;;;435.30;1868.80;;;;;;5034217;28;20040;-85
2023/03/30 10:42:55;;;;;;;15.60;10.83;;;435.60;1766.40;;;;;;5029245;28;20025;-83
2023/03/30 10:45:35;;;;;;;23.38;15.52;;;436.00;1766.40;;;;;;5034685;28;20292;-85
2023/03/30 10:48:04;;;;;;;17.65;11.27;;;436.00;1766.40;;;;;;5053406;28;20052;-82
2023/03/30 10:50:57;;;;;;;15.18;9.70;;;460.80;1792.00;;;;;;5036448;28;20030;-84
2023/03/30 10:54:00;;;;;;;14.10;8.20;;;460.90;1868.80;;;;;;5025395;28;20084;-83
2023/03/30 10:56:28;;;;;;;20.95;13.75;;;461.10;1792.00;;;;;;5033502;28;20082;-86
2023/03/30 10:59:04;;;;;;;13.73;9.15;;;461.40;1868.80;;;;;;5052653;28;20453;-86
2023/03/30 11:01:45;;;;;;;13.13;8.23;;;;;;;;;;5034781;28;20029;-86
2023/03/30 11:04:21;;;;;;;11.15;4.47;;;486.40;1715.20;;;;;;5035398;28;20054;-83
2023/03/30 11:06:49;;;;;;;9.35;4.35;;;461.60;1664.00;;;;;;5035918;28;20052;-84
2023/03/30 11:09:21;;;;;;;6.90;3.58;;;461.60;1664.00;;;;;;5026587;28;20029;-83
2023/03/30 11:12:10;;;;;;;7.37;3.63;;;486.70;1638.40;;;;;;5055299;28;20021;-85
2023/03/30 11:14:35;;;;;;;8.02;4.63;;;461.60;1638.40;;;;;;5037048;28;20033;-82
2023/03/30 11:17:11;;;;;;;7.55;3.65;;;461.70;1689.60;;;;;;5030928;28;20041;-85
2023/03/30 11:19:52;;;;;;;7.85;3.80;;;461.60;1689.60;;;;;;5035444;28;20384;-87
2023/03/30 11:22:38;;;;;;;10.38;5.93;;;461.50;1664.00;;;;;;5019393;28;20061;-85
2023/03/30 11:25:22;;;;;;;7.35;4.80;;;486.70;1689.60;;;;;;5028004;28;20065;-86
2023/03/30 11:28:30;;;;;;;7.13;4.65;;;486.60;1638.40;;;;;;5026098;28;20037;-85
2023/03/30 11:31:02;;;;;;;9.52;5.63;;;512.40;1612.80;;;;;;5032551;28;20044;-83
2023/03/30 11:34:06;;;;;;;9.20;4.28;;;512.50;1612.80;;;;;;5047880;28;20060;-90
2023/03/30 11:36:39;;;;;;;9.13;3.15;;;512.50;1638.40;;;;;;5009046;28;20083;-87
2023/03/30 11:39:13;;;;;;;5.90;2.90;;;512.70;1561.60;;;;;;5031578;28;20124;-87
2023/03/30 11:42:09;;;;;;;6.15;3.55;;;537.90;1561.60;;;;;;5019080;28;20073;-85
2023/03/30 11:44:35;;;;;;;6.53;3.53;;;537.80;1561.60;;;;;;5029806;28;20036;-84
2023/03/30 11:47:43;;;;;;;8.48;6.22;;;537.80;1587.20;;;;;;5039320;28;20025;-85
2023/03/30 11:50:53;;;;;;;8.20;5.43;;;538.10;1587.20;;;;;;5029044;28;20025;-84
2023/03/30 11:53:25;;;;;;;9.27;3.83;;;538.50;1587.20;;;;;;5043632;28;20502;-84
2023/03/30 11:56:09;;;;;;;10.17;5.93;;;538.20;1561.60;;;;;;5037408;28;20052;-85
2023/03/30 11:58:43;;;;;;;9.82;5.47;;;563.20;1587.20;;;;;;5046585;28;20365;-82
2023/03/30 12:01:43;;;;;;;8.15;5.20;;;563.30;1612.80;;;;;;5037050;28;20033;-82
2023/03/30 12:04:13;;;;;;;7.07;3.85;;;563.40;1638.40;;;;;;5021625;28;20033;-83
2023/03/30 12:06:44;;;;;;;10.63;5.13;;;563.60;1612.80;;;;;;5021567;28;20017;-83
2023/03/30 12:09:30;;;;;;;8.73;4.70;;;563.70;1612.80;;;;;;5038339;28;20033;-83
2023/03/30 12:12:14;;;;;;;14.55;8.35;;;563.50;1587.20;;;;;;5024316;28;20021;-82
2023/03/30 12:15:21;;;;;;;10.02;4.65;;;563.60;1587.20;;;;;;5059345;28;20013;-83
2023/03/30 12:17:52;;;;;;;10.82;6.35;;;563.70;1587.20;;;;;;5062266;28;20037;-84
2023/03/30 12:20:21;;;;;;;14.60;8.18;;;563.90;1587.20;;;;;;5037008;28;20037;-84
2023/03/30 12:22:57;;;;;;;14.13;6.70;;;564.10;1561.60;;;;;;5064537;28;20044;-83
2023/03/30 12:25:27;;;;;;;9.68;5.63;;;564.10;1561.60;;;;;;5063094;28;20397;-82